sensor_id;sensor_type;location;lat;lon;timestamp;pressure;altitude;pressure_sealevel;temperature;humidity
52319;BME280;38258;51.148;14.068;2023-04-28T00:03:08;98606.81;;;2.03;100.00
52319;BME280;38258;51.148;14.068;2023-04-28T00:06:57;98337.28;;;0.55;100.00
52319;BME280;38258;51.148;14.068;2023-04-28T00:09:44;98508.41;;;1.62;100.00
52319;BME280;38258;51.148;14.068;2023-04-28T00:12:24;98561.16;;;1.94;100.00
52319;BME280;38258;51.148;14.068;2023-04-28T00:15:38;98459.13;;;1.30;100.00
52319;BME280;38258;51.148;14.068;2023-04-28T00:18:48;98604.22;;;2.03;100.00
52319;BME280;38258;51.148;14.068;2023-04-28T00:21:27;98508.38;;;1.59;100.00
52319;BME280;38258;51.148;14.068;2023-04-28T00:27:31;98439.44;;;1.36;100.00
52319;BME280;38258;51.148;14.068;2023-04-28T00:30:15;98488.66;;;1.63;100.00
52319;BME280;38258;51.148;14.068;2023-04-28T00:32:56;98460.09;;;1.43;100.00
52319;BME280;38258;51.148;14.068;2023-04-28T00:35:25;98444.94;;;1.75;100.00
52319;BME280;38258;51.148;14.068;2023-04-28T00:38:23;98572.84;;;2.60;100.00
52319;BME280;38258;51.148;14.068;2023-04-28T00:41:08;98462.97;;;1.74;100.00
52319;BME280;38258;51.148;14.068;2023-04-28T00:43:45;98299.78;;;0.79;100.00
52319;BME280;38258;51.148;14.068;2023-04-28T00:46:21;98471.84;;;2.11;100.00
52319;BME280;38258;51.148;14.068;2023-04-28T00:49:10;98376.16;;;1.76;100.00
52319;BME280;38258;51.148;14.068;2023-04-28T00:51:49;98405.63;;;2.09;100.00
52319;BME280;38258;51.148;14.068;2023-04-28T00:54:22;98497.22;;;2.86;100.00
52319;BME280;38258;51.148;14.068;2023-04-28T00:56:59;98341.00;;;1.93;100.00
52319;BME280;38258;51.148;14.068;2023-04-28T00:59:33;98364.31;;;2.10;100.00
52319;BME280;38258;51.148;14.068;2023-04-28T01:02:09;98537.84;;;3.18;100.00
52319;BME280;38258;51.148;14.068;2023-04-28T01:04:50;98419.56;;;2.45;100.00
52319;BME280;38258;51.148;14.068;2023-04-28T01:07:36;98526.56;;;2.97;100.00
52319;BME280;38258;51.148;14.068;2023-04-28T01:10:50;98523.94;;;2.88;100.00
52319;BME280;38258;51.148;14.068;2023-04-28T01:16:10;98520.50;;;2.89;100.00
52319;BME280;38258;51.148;14.068;2023-04-28T01:20:54;98259.75;;;1.15;100.00
52319;BME280;38258;51.148;14.068;2023-04-28T01:55:14;98498.97;;;2.93;100.00
52319;BME280;38258;51.148;14.068;2023-04-28T01:58:01;98384.31;;;2.52;100.00
52319;BME280;38258;51.148;14.068;2023-04-28T02:00:36;98243.75;;;1.71;100.00
52319;BME280;38258;51.148;14.068;2023-04-28T02:03:47;98495.66;;;3.27;100.00
52319;BME280;38258;51.148;14.068;2023-04-28T02:07:44;98325.81;;;2.66;100.00
52319;BME280;38258;51.148;14.068;2023-04-28T02:10:16;98460.34;;;3.38;100.00
52319;BME280;38258;51.148;14.068;2023-04-28T02:12:58;98242.16;;;1.97;100.00
52319;BME280;38258;51.148;14.068;2023-04-28T02:16:04;98415.50;;;3.19;100.00
52319;BME280;38258;51.148;14.068;2023-04-28T02:19:44;98220.75;;;2.23;100.00
52319;BME280;38258;51.148;14.068;2023-04-28T02:23:29;98469.00;;;3.71;100.00
52319;BME280;38258;51.148;14.068;2023-04-28T02:26:01;98463.84;;;3.65;100.00
52319;BME280;38258;51.148;14.068;2023-04-28T02:28:28;98456.06;;;3.76;100.00
52319;BME280;38258;51.148;14.068;2023-04-28T02:31:03;98459.53;;;3.95;100.00
52319;BME280;38258;51.148;14.068;2023-04-28T02:33:29;98454.34;;;3.93;100.00
52319;BME280;38258;51.148;14.068;2023-04-28T02:35:58;98459.53;;;3.73;100.00
52319;BME280;38258;51.148;14.068;2023-04-28T02:38:24;98459.53;;;3.64;100.00
52319;BME280;38258;51.148;14.068;2023-04-28T02:40:56;98454.34;;;3.62;100.00
52319;BME280;38258;51.148;14.068;2023-04-28T02:43:25;98416.41;;;3.52;100.00
52319;BME280;38258;51.148;14.068;2023-04-28T02:45:52;98456.91;;;3.65;100.00
52319;BME280;38258;51.148;14.068;2023-04-28T02:48:19;98438.78;;;3.42;100.00
52319;BME280;38258;51.148;14.068;2023-04-28T02:50:46;98443.13;;;3.60;100.00
52319;BME280;38258;51.148;14.068;2023-04-28T02:53:13;98442.25;;;3.46;100.00
52319;BME280;38258;51.148;14.068;2023-04-28T02:55:40;98427.63;;;3.90;100.00
52319;BME280;38258;51.148;14.068;2023-04-28T02:58:07;98430.16;;;4.07;100.00
52319;BME280;38258;51.148;14.068;2023-04-28T03:00:35;98423.22;;;4.29;100.00
52319;BME280;38258;51.148;14.068;2023-04-28T03:03:02;98419.00;;;3.78;100.00
52319;BME280;38258;51.148;14.068;2023-04-28T03:05:29;98420.69;;;3.98;100.00
52319;BME280;38258;51.148;14.068;2023-04-28T03:07:55;98424.16;;;3.66;100.00
52319;BME280;38258;51.148;14.068;2023-04-28T03:10:22;98427.59;;;3.42;100.00
52319;BME280;38258;51.148;14.068;2023-04-28T03:12:49;98403.44;;;3.30;100.00
52319;BME280;38258;51.148;14.068;2023-04-28T03:15:17;98420.69;;;3.28;100.00
52319;BME280;38258;51.148;14.068;2023-04-28T03:17:45;98422.41;;;3.23;100.00
52319;BME280;38258;51.148;14.068;2023-04-28T03:20:12;98416.38;;;3.16;100.00
52319;BME280;38258;51.148;14.068;2023-04-28T03:22:39;98418.91;;;3.08;100.00
52319;BME280;38258;51.148;14.068;2023-04-28T03:25:07;98414.59;;;3.07;100.00
52319;BME280;38258;51.148;14.068;2023-04-28T03:27:42;98397.34;;;2.88;100.00
52319;BME280;38258;51.148;14.068;2023-04-28T03:30:09;98415.41;;;2.81;100.00
52319;BME280;38258;51.148;14.068;2023-04-28T03:32:36;98418.81;;;2.68;100.00
52319;BME280;38258;51.148;14.068;2023-04-28T03:35:05;98410.19;;;2.71;100.00
52319;BME280;38258;51.148;14.068;2023-04-28T03:37:31;98407.59;;;2.64;100.00
52319;BME280;38258;51.148;14.068;2023-04-28T03:39:58;98404.06;;;2.44;100.00
52319;BME280;38258;51.148;14.068;2023-04-28T03:42:25;98404.09;;;2.47;100.00
52319;BME280;38258;51.148;14.068;2023-04-28T03:45:08;98410.16;;;2.53;100.00
52319;BME280;38258;51.148;14.068;2023-04-28T03:47:35;98404.97;;;2.53;100.00
52319;BME280;38258;51.148;14.068;2023-04-28T03:50:02;98405.03;;;2.69;100.00
52319;BME280;38258;51.148;14.068;2023-04-28T03:52:30;98398.97;;;2.64;100.00
52319;BME280;38258;51.148;14.068;2023-04-28T03:54:57;98399.88;;;2.69;100.00
52319;BME280;38258;51.148;14.068;2023-04-28T03:57:24;98399.06;;;2.92;100.00
52319;BME280;38258;51.148;14.068;2023-04-28T03:59:51;98394.75;;;2.94;100.00
52319;BME280;38258;51.148;14.068;2023-04-28T04:02:17;98397.34;;;2.91;100.00
52319;BME280;38258;51.148;14.068;2023-04-28T04:04:44;98391.31;;;2.93;100.00
52319;BME280;38258;51.148;14.068;2023-04-28T04:07:11;98391.38;;;3.20;100.00
52319;BME280;38258;51.148;14.068;2023-04-28T04:09:40;98381.00;;;2.96;100.00
52319;BME280;38258;51.148;14.068;2023-04-28T04:12:08;98381.84;;;2.91;100.00
52319;BME280;38258;51.148;14.068;2023-04-28T04:14:35;98384.47;;;3.02;100.00
52319;BME280;38258;51.148;14.068;2023-04-28T04:17:02;98383.63;;;3.17;100.00
52319;BME280;38258;51.148;14.068;2023-04-28T04:19:29;98387.06;;;3.22;100.00
52319;BME280;38258;51.148;14.068;2023-04-28T04:21:56;98385.34;;;3.18;100.00
52319;BME280;38258;51.148;14.068;2023-04-28T04:24:23;98387.91;;;3.21;100.00
52319;BME280;38258;51.148;14.068;2023-04-28T04:26:52;98381.91;;;3.33;100.00
52319;BME280;38258;51.148;14.068;2023-04-28T04:29:38;98385.38;;;3.52;100.00
52319;BME280;38258;51.148;14.068;2023-04-28T04:32:10;98384.50;;;3.51;100.00
52319;BME280;38258;51.148;14.068;2023-04-28T04:34:39;98373.28;;;3.45;100.00
52319;BME280;38258;51.148;14.068;2023-04-28T04:37:06;98354.34;;;3.38;100.00
52319;BME280;38258;51.148;14.068;2023-04-28T04:39:35;98359.50;;;3.58;100.00
52319;BME280;38258;51.148;14.068;2023-04-28T04:42:03;98374.16;;;3.67;100.00
52319;BME280;38258;51.148;14.068;2023-04-28T04:44:37;98367.25;;;3.61;100.00
52319;BME280;38258;51.148;14.068;2023-04-28T04:47:09;98357.75;;;3.90;100.00
52319;BME280;38258;51.148;14.068;2023-04-28T04:49:36;98363.75;;;4.04;100.00
52319;BME280;38258;51.148;14.068;2023-04-28T04:52:02;98361.09;;;4.21;100.00
52319;BME280;38258;51.148;14.068;2023-04-28T04:54:31;98360.16;;;4.44;100.00
52319;BME280;38258;51.148;14.068;2023-04-28T04:56:58;98360.09;;;4.60;100.00
52319;BME280;38258;51.148;14.068;2023-04-28T04:59:55;98350.44;;;4.90;100.00
52319;BME280;38258;51.148;14.068;2023-04-28T05:02:22;98353.81;;;5.01;100.00
52319;BME280;38258;51.148;14.068;2023-04-28T05:04:52;98338.19;;;5.14;100.00
52319;BME280;38258;51.148;14.068;2023-04-28T05:07:20;98342.38;;;5.32;100.00
52319;BME280;38258;51.148;14.068;2023-04-28T05:09:47;98323.25;;;5.42;100.00
52319;BME280;38258;51.148;14.068;2023-04-28T05:12:14;98332.56;;;5.66;100.00
52319;BME280;38258;51.148;14.068;2023-04-28T05:14:41;98330.81;;;5.69;100.00
52319;BME280;38258;51.148;14.068;2023-04-28T05:17:12;98329.84;;;5.82;100.00
52319;BME280;38258;51.148;14.068;2023-04-28T05:19:40;98328.84;;;5.96;100.00
52319;BME280;38258;51.148;14.068;2023-04-28T05:22:07;98325.41;;;5.92;100.00
52319;BME280;38258;51.148;14.068;2023-04-28T05:24:35;98326.97;;;6.10;100.00
52319;BME280;38258;51.148;14.068;2023-04-28T05:27:02;98324.34;;;6.13;100.00
52319;BME280;38258;51.148;14.068;2023-04-28T05:29:29;98324.94;;;6.35;100.00
52319;BME280;38258;51.148;14.068;2023-04-28T05:31:56;98317.22;;;6.29;100.00
52319;BME280;38258;51.148;14.068;2023-04-28T05:34:25;98322.16;;;6.51;100.00
52319;BME280;38258;51.148;14.068;2023-04-28T05:36:52;98319.59;;;6.46;100.00
52319;BME280;38258;51.148;14.068;2023-04-28T05:39:23;98308.22;;;6.57;100.00
52319;BME280;38258;51.148;14.068;2023-04-28T05:41:49;98317.75;;;6.56;100.00
52319;BME280;38258;51.148;14.068;2023-04-28T05:44:16;98322.00;;;6.63;96.69
52319;BME280;38258;51.148;14.068;2023-04-28T05:46:44;98301.97;;;6.70;100.00
52319;BME280;38258;51.148;14.068;2023-04-28T05:49:11;98308.91;;;6.70;99.01
52319;BME280;38258;51.148;14.068;2023-04-28T05:51:39;98309.03;;;6.60;98.58
52319;BME280;38258;51.148;14.068;2023-04-28T05:54:06;98315.03;;;6.67;97.38
52319;BME280;38258;51.148;14.068;2023-04-28T05:56:39;98297.50;;;6.78;100.00
52319;BME280;38258;51.148;14.068;2023-04-28T05:59:07;98301.81;;;6.83;100.00
52319;BME280;38258;51.148;14.068;2023-04-28T06:01:35;98314.47;;;7.04;98.77
52319;BME280;38258;51.148;14.068;2023-04-28T06:04:03;98307.41;;;7.13;100.00
52319;BME280;38258;51.148;14.068;2023-04-28T06:06:30;98312.34;;;7.30;98.72
52319;BME280;38258;51.148;14.068;2023-04-28T06:09:00;98306.97;;;7.41;98.58
52319;BME280;38258;51.148;14.068;2023-04-28T06:11:27;98295.53;;;7.49;99.79
52319;BME280;38258;51.148;14.068;2023-04-28T06:13:54;98296.16;;;7.62;99.76
52319;BME280;38258;51.148;14.068;2023-04-28T06:16:21;98304.03;;;7.59;99.62
52319;BME280;38258;51.148;14.068;2023-04-28T06:18:48;98303.44;;;7.45;97.90
52319;BME280;38258;51.148;14.068;2023-04-28T06:21:15;98309.47;;;7.45;99.99
52319;BME280;38258;51.148;14.068;2023-04-28T06:23:42;98304.16;;;7.53;98.34
52319;BME280;38258;51.148;14.068;2023-04-28T06:26:10;98296.25;;;7.58;97.53
52319;BME280;38258;51.148;14.068;2023-04-28T06:28:38;98295.22;;;7.68;98.86
52319;BME280;38258;51.148;14.068;2023-04-28T06:31:06;98286.66;;;7.61;97.06
52319;BME280;38258;51.148;14.068;2023-04-28T06:33:33;98304.84;;;7.63;92.60
52319;BME280;38258;51.148;14.068;2023-04-28T06:36:00;98298.53;;;7.76;93.52
52319;BME280;38258;51.148;14.068;2023-04-28T06:38:27;98307.03;;;7.86;95.37
52319;BME280;38258;51.148;14.068;2023-04-28T06:40:54;98295.50;;;7.98;94.27
52319;BME280;38258;51.148;14.068;2023-04-28T06:43:22;98303.13;;;8.09;93.98
52319;BME280;38258;51.148;14.068;2023-04-28T06:45:56;98301.16;;;8.20;90.08
52319;BME280;38258;51.148;14.068;2023-04-28T06:48:24;98306.22;;;8.28;90.21
52319;BME280;38258;51.148;14.068;2023-04-28T06:50:51;98280.56;;;8.08;88.26
52319;BME280;38258;51.148;14.068;2023-04-28T06:53:17;98295.69;;;8.33;86.76
52319;BME280;38258;51.148;14.068;2023-04-28T06:55:44;98298.94;;;8.85;94.05
52319;BME280;38258;51.148;14.068;2023-04-28T06:58:11;98293.47;;;8.96;89.43
52319;BME280;38258;51.148;14.068;2023-04-28T07:00:39;98267.91;;;8.74;89.07
52319;BME280;38258;51.148;14.068;2023-04-28T07:03:06;98290.38;;;9.18;88.15
52319;BME280;38258;51.148;14.068;2023-04-28T07:05:33;98292.44;;;9.05;84.31
52319;BME280;38258;51.148;14.068;2023-04-28T07:08:00;98300.19;;;9.07;87.22
52319;BME280;38258;51.148;14.068;2023-04-28T07:10:27;98290.22;;;9.24;85.87
52319;BME280;38258;51.148;14.068;2023-04-28T07:12:54;98269.13;;;9.32;78.51
52319;BME280;38258;51.148;14.068;2023-04-28T07:15:20;98282.66;;;9.83;81.62
52319;BME280;38258;51.148;14.068;2023-04-28T07:17:49;98280.22;;;9.76;81.49
52319;BME280;38258;51.148;14.068;2023-04-28T07:20:16;98275.66;;;9.50;79.05
52319;BME280;38258;51.148;14.068;2023-04-28T07:22:43;98262.69;;;9.47;76.65
52319;BME280;38258;51.148;14.068;2023-04-28T07:25:10;98276.53;;;9.82;79.87
52319;BME280;38258;51.148;14.068;2023-04-28T07:27:37;98275.22;;;9.67;75.37
52319;BME280;38258;51.148;14.068;2023-04-28T07:30:05;98264.78;;;9.67;76.05
52319;BME280;38258;51.148;14.068;2023-04-28T07:32:31;98251.94;;;9.91;75.42
52319;BME280;38258;51.148;14.068;2023-04-28T07:34:59;98261.34;;;10.28;73.67
52319;BME280;38258;51.148;14.068;2023-04-28T07:37:27;98251.00;;;10.24;71.47
52319;BME280;38258;51.148;14.068;2023-04-28T07:39:55;98250.75;;;10.33;70.72
52319;BME280;38258;51.148;14.068;2023-04-28T07:42:22;98254.28;;;10.91;72.30
52319;BME280;38258;51.148;14.068;2023-04-28T07:44:48;98256.59;;;11.00;69.56
52319;BME280;38258;51.148;14.068;2023-04-28T07:47:15;98257.72;;;10.93;75.01
52319;BME280;38258;51.148;14.068;2023-04-28T07:49:42;98258.75;;;10.58;72.01
52319;BME280;38258;51.148;14.068;2023-04-28T07:52:11;98250.78;;;10.90;73.21
52319;BME280;38258;51.148;14.068;2023-04-28T07:54:38;98249.47;;;10.77;71.77
52319;BME280;38258;51.148;14.068;2023-04-28T07:57:04;98249.28;;;10.54;71.23
52319;BME280;38258;51.148;14.068;2023-04-28T07:59:32;98241.88;;;10.39;72.29
52319;BME280;38258;51.148;14.068;2023-04-28T08:01:58;98241.53;;;10.80;71.24
52319;BME280;38258;51.148;14.068;2023-04-28T08:04:25;98236.81;;;11.18;72.01
52319;BME280;38258;51.148;14.068;2023-04-28T08:06:52;98238.16;;;10.76;70.31
52319;BME280;38258;51.148;14.068;2023-04-28T08:09:20;98228.84;;;11.21;69.31
52319;BME280;38258;51.148;14.068;2023-04-28T08:11:47;98234.56;;;11.59;71.52
52319;BME280;38258;51.148;14.068;2023-04-28T08:14:14;98214.72;;;11.78;67.04
52319;BME280;38258;51.148;14.068;2023-04-28T08:16:40;98232.59;;;11.65;66.26
52319;BME280;38258;51.148;14.068;2023-04-28T08:19:08;98236.63;;;11.50;66.45
52319;BME280;38258;51.148;14.068;2023-04-28T08:21:34;98218.34;;;11.48;64.84
52319;BME280;38258;51.148;14.068;2023-04-28T08:24:01;98231.31;;;11.26;70.92
52319;BME280;38258;51.148;14.068;2023-04-28T08:26:29;98233.69;;;11.34;66.86
52319;BME280;38258;51.148;14.068;2023-04-28T08:28:56;98233.28;;;11.19;64.72
52319;BME280;38258;51.148;14.068;2023-04-28T08:31:23;98227.44;;;11.11;66.40
52319;BME280;38258;51.148;14.068;2023-04-28T08:33:50;98227.75;;;11.01;69.24
52319;BME280;38258;51.148;14.068;2023-04-28T08:36:16;98222.91;;;11.43;69.54
52319;BME280;38258;51.148;14.068;2023-04-28T08:38:43;98229.94;;;11.66;66.12
52319;BME280;38258;51.148;14.068;2023-04-28T08:41:11;98227.63;;;11.82;64.37
52319;BME280;38258;51.148;14.068;2023-04-28T08:43:40;98233.72;;;11.83;65.34
52319;BME280;38258;51.148;14.068;2023-04-28T08:46:09;98225.44;;;11.95;69.06
52319;BME280;38258;51.148;14.068;2023-04-28T08:48:39;98226.81;;;11.80;63.24
52319;BME280;38258;51.148;14.068;2023-04-28T08:51:06;98225.22;;;12.49;68.88
52319;BME280;38258;51.148;14.068;2023-04-28T08:53:36;98213.84;;;12.93;62.95
52319;BME280;38258;51.148;14.068;2023-04-28T08:56:05;98207.31;;;13.24;60.95
52319;BME280;38258;51.148;14.068;2023-04-28T08:58:34;98206.97;;;13.94;62.79
52319;BME280;38258;51.148;14.068;2023-04-28T09:01:02;98214.16;;;13.28;59.52
52319;BME280;38258;51.148;14.068;2023-04-28T09:03:29;98204.06;;;12.97;58.66
52319;BME280;38258;51.148;14.068;2023-04-28T09:05:57;98198.75;;;12.76;62.48
52319;BME280;38258;51.148;14.068;2023-04-28T09:08:23;98207.38;;;12.80;64.70
52319;BME280;38258;51.148;14.068;2023-04-28T09:11:04;98220.53;;;12.34;60.52
52319;BME280;38258;51.148;14.068;2023-04-28T09:13:31;98210.47;;;12.45;63.08
52319;BME280;38258;51.148;14.068;2023-04-28T09:15:59;98196.25;;;12.95;62.40
52319;BME280;38258;51.148;14.068;2023-04-28T09:18:29;98199.56;;;13.00;60.51
52319;BME280;38258;51.148;14.068;2023-04-28T09:21:04;98202.63;;;12.67;62.49
52319;BME280;38258;51.148;14.068;2023-04-28T09:26:00;98209.88;;;12.83;62.70
52319;BME280;38258;51.148;14.068;2023-04-28T09:28:27;98202.84;;;13.06;65.60
52319;BME280;38258;51.148;14.068;2023-04-28T09:30:54;98212.72;;;12.56;60.50
52319;BME280;38258;51.148;14.068;2023-04-28T09:33:21;98215.63;;;12.70;60.94
52319;BME280;38258;51.148;14.068;2023-04-28T09:35:49;98205.69;;;12.33;63.32
52319;BME280;38258;51.148;14.068;2023-04-28T09:38:17;98211.88;;;12.54;63.70
52319;BME280;38258;51.148;14.068;2023-04-28T09:40:52;98193.22;;;12.84;62.28
52319;BME280;38258;51.148;14.068;2023-04-28T09:43:23;98193.44;;;13.00;64.83
52319;BME280;38258;51.148;14.068;2023-04-28T09:45:50;98189.28;;;13.37;62.29
52319;BME280;38258;51.148;14.068;2023-04-28T09:48:25;98158.53;;;12.98;65.31
52319;BME280;38258;51.148;14.068;2023-04-28T09:50:54;98180.81;;;13.51;62.19
52319;BME280;38258;51.148;14.068;2023-04-28T09:53:22;98187.91;;;13.28;61.42
52319;BME280;38258;51.148;14.068;2023-04-28T09:55:51;98175.31;;;12.94;62.84
52319;BME280;38258;51.148;14.068;2023-04-28T09:58:19;98189.09;;;12.99;60.99
52319;BME280;38258;51.148;14.068;2023-04-28T10:00:51;98162.44;;;12.87;60.67
52319;BME280;38258;51.148;14.068;2023-04-28T10:03:20;98182.78;;;12.82;62.31
52319;BME280;38258;51.148;14.068;2023-04-28T10:05:47;98185.78;;;12.73;64.02
52319;BME280;38258;51.148;14.068;2023-04-28T10:08:15;98175.75;;;12.83;63.79
52319;BME280;38258;51.148;14.068;2023-04-28T10:11:04;98174.53;;;12.92;62.28
52319;BME280;38258;51.148;14.068;2023-04-28T10:13:52;98176.44;;;13.09;60.24
52319;BME280;38258;51.148;14.068;2023-04-28T10:16:34;98170.47;;;13.26;61.52
52319;BME280;38258;51.148;14.068;2023-04-28T10:19:02;98174.59;;;13.11;61.80
52319;BME280;38258;51.148;14.068;2023-04-28T10:21:32;98163.44;;;13.06;59.35
52319;BME280;38258;51.148;14.068;2023-04-28T10:24:09;98168.38;;;12.93;61.17
52319;BME280;38258;51.148;14.068;2023-04-28T10:27:03;98172.97;;;13.29;61.67
52319;BME280;38258;51.148;14.068;2023-04-28T10:29:31;98164.03;;;12.92;61.68
52319;BME280;38258;51.148;14.068;2023-04-28T10:32:17;98171.22;;;12.86;63.67
52319;BME280;38258;51.148;14.068;2023-04-28T10:34:44;98172.03;;;12.89;62.97
52319;BME280;38258;51.148;14.068;2023-04-28T10:37:11;98165.09;;;12.65;62.44
52319;BME280;38258;51.148;14.068;2023-04-28T10:42:53;98175.75;;;12.38;68.34
52319;BME280;38258;51.148;14.068;2023-04-28T10:45:58;98180.38;;;12.09;73.74
52319;BME280;38258;51.148;14.068;2023-04-28T10:48:53;98185.72;;;12.06;76.66
52319;BME280;38258;51.148;14.068;2023-04-28T10:51:22;98173.41;;;11.84;80.87
52319;BME280;38258;51.148;14.068;2023-04-28T10:54:09;98161.66;;;11.95;73.82
52319;BME280;38258;51.148;14.068;2023-04-28T10:56:37;98158.78;;;12.02;75.24
52319;BME280;38258;51.148;14.068;2023-04-28T10:59:24;98161.25;;;12.29;74.56
52319;BME280;38258;51.148;14.068;2023-04-28T11:01:52;98157.69;;;12.75;72.29
52319;BME280;38258;51.148;14.068;2023-04-28T11:04:19;98156.84;;;12.75;67.90
52319;BME280;38258;51.148;14.068;2023-04-28T11:07:10;98166.03;;;13.07;69.01
52319;BME280;38258;51.148;14.068;2023-04-28T11:09:47;98152.56;;;13.36;65.12
52319;BME280;38258;51.148;14.068;2023-04-28T11:12:16;98173.34;;;13.82;70.04
52319;BME280;38258;51.148;14.068;2023-04-28T11:14:43;98175.09;;;13.81;66.89
52319;BME280;38258;51.148;14.068;2023-04-28T11:17:10;98175.31;;;13.57;71.44
52319;BME280;38258;51.148;14.068;2023-04-28T11:19:43;98161.69;;;13.68;67.19
52319;BME280;38258;51.148;14.068;2023-04-28T11:22:16;98166.84;;;13.70;68.59
52319;BME280;38258;51.148;14.068;2023-04-28T11:24:54;98184.50;;;13.47;64.76
52319;BME280;38258;51.148;14.068;2023-04-28T11:27:23;98203.59;;;12.87;67.32
52319;BME280;38258;51.148;14.068;2023-04-28T11:29:51;98202.25;;;12.54;67.99
52319;BME280;38258;51.148;14.068;2023-04-28T11:32:25;98198.44;;;12.39;78.44
52319;BME280;38258;51.148;14.068;2023-04-28T11:34:53;98201.78;;;12.21;77.92
52319;BME280;38258;51.148;14.068;2023-04-28T11:37:20;98202.03;;;12.14;80.25
52319;BME280;38258;51.148;14.068;2023-04-28T11:39:47;98202.78;;;12.40;78.29
52319;BME280;38258;51.148;14.068;2023-04-28T11:42:14;98200.72;;;12.49;80.78
52319;BME280;38258;51.148;14.068;2023-04-28T11:44:48;98205.22;;;12.45;82.10
52319;BME280;38258;51.148;14.068;2023-04-28T11:47:27;98203.81;;;12.36;83.00
52319;BME280;38258;51.148;14.068;2023-04-28T11:49:54;98195.53;;;12.47;87.36
52319;BME280;38258;51.148;14.068;2023-04-28T11:52:21;98190.84;;;12.55;87.36
52319;BME280;38258;51.148;14.068;2023-04-28T11:54:53;98184.06;;;12.50;85.59
52319;BME280;38258;51.148;14.068;2023-04-28T11:57:22;98195.59;;;12.46;91.52
52319;BME280;38258;51.148;14.068;2023-04-28T11:59:51;98182.06;;;12.34;94.80
52319;BME280;38258;51.148;14.068;2023-04-28T12:02:24;98177.13;;;12.71;86.60
52319;BME280;38258;51.148;14.068;2023-04-28T12:04:53;98176.16;;;12.51;93.28
52319;BME280;38258;51.148;14.068;2023-04-28T12:07:20;98172.91;;;12.22;95.93
52319;BME280;38258;51.148;14.068;2023-04-28T12:09:48;98160.75;;;12.20;86.34
52319;BME280;38258;51.148;14.068;2023-04-28T12:12:27;98180.41;;;12.54;83.31
52319;BME280;38258;51.148;14.068;2023-04-28T12:14:56;98171.56;;;12.34;82.00
52319;BME280;38258;51.148;14.068;2023-04-28T12:17:24;98166.00;;;12.20;80.29
52319;BME280;38258;51.148;14.068;2023-04-28T12:19:51;98175.94;;;12.34;77.51
52319;BME280;38258;51.148;14.068;2023-04-28T12:22:18;98167.91;;;12.61;80.01
52319;BME280;38258;51.148;14.068;2023-04-28T12:24:45;98163.53;;;12.82;82.55
52319;BME280;38258;51.148;14.068;2023-04-28T12:27:16;98159.63;;;12.92;85.34
52319;BME280;38258;51.148;14.068;2023-04-28T12:29:46;98161.53;;;12.89;81.53
52319;BME280;38258;51.148;14.068;2023-04-28T12:32:14;98158.38;;;12.80;79.63
52319;BME280;38258;51.148;14.068;2023-04-28T12:34:43;98163.25;;;12.67;88.14
52319;BME280;38258;51.148;14.068;2023-04-28T12:37:11;98157.06;;;12.91;83.18
52319;BME280;38258;51.148;14.068;2023-04-28T12:39:39;98163.44;;;12.85;86.45
52319;BME280;38258;51.148;14.068;2023-04-28T12:42:06;98162.22;;;12.94;83.82
52319;BME280;38258;51.148;14.068;2023-04-28T12:44:33;98150.56;;;12.79;86.26
52319;BME280;38258;51.148;14.068;2023-04-28T12:47:05;98151.47;;;12.78;80.52
52319;BME280;38258;51.148;14.068;2023-04-28T12:49:33;98152.56;;;12.72;82.32
52319;BME280;38258;51.148;14.068;2023-04-28T12:52:00;98152.72;;;12.69;79.29
52319;BME280;38258;51.148;14.068;2023-04-28T12:54:27;98164.66;;;12.54;83.04
52319;BME280;38258;51.148;14.068;2023-04-28T12:56:54;98164.44;;;12.60;81.98
52319;BME280;38258;51.148;14.068;2023-04-28T12:59:20;98158.72;;;12.50;85.51
52319;BME280;38258;51.148;14.068;2023-04-28T13:01:47;98163.34;;;12.66;85.18
52319;BME280;38258;51.148;14.068;2023-04-28T13:04:14;98156.00;;;12.52;86.02
52319;BME280;38258;51.148;14.068;2023-04-28T13:06:42;98149.66;;;12.35;84.83
52319;BME280;38258;51.148;14.068;2023-04-28T13:09:10;98147.16;;;12.32;89.45
52319;BME280;38258;51.148;14.068;2023-04-28T13:11:36;98140.75;;;12.62;89.36
52319;BME280;38258;51.148;14.068;2023-04-28T13:14:03;98143.94;;;12.48;88.79
52319;BME280;38258;51.148;14.068;2023-04-28T13:16:30;98134.00;;;12.56;84.52
52319;BME280;38258;51.148;14.068;2023-04-28T13:18:56;98143.16;;;12.46;87.83
52319;BME280;38258;51.148;14.068;2023-04-28T13:21:23;98136.50;;;12.14;85.23
52319;BME280;38258;51.148;14.068;2023-04-28T13:23:53;98120.25;;;12.05;88.70
52319;BME280;38258;51.148;14.068;2023-04-28T13:26:20;98130.94;;;12.22;84.89
52319;BME280;38258;51.148;14.068;2023-04-28T13:28:48;98114.03;;;12.07;87.07
52319;BME280;38258;51.148;14.068;2023-04-28T13:31:16;98128.25;;;12.24;88.79
52319;BME280;38258;51.148;14.068;2023-04-28T13:33:43;98121.25;;;12.00;89.38
52319;BME280;38258;51.148;14.068;2023-04-28T13:36:09;98117.78;;;12.00;90.47
52319;BME280;38258;51.148;14.068;2023-04-28T13:38:37;98134.31;;;11.78;95.61
52319;BME280;38258;51.148;14.068;2023-04-28T13:41:05;98126.28;;;11.83;93.40
52319;BME280;38258;51.148;14.068;2023-04-28T13:43:32;98133.06;;;11.88;92.01
52319;BME280;38258;51.148;14.068;2023-04-28T13:45:58;98123.78;;;11.80;95.35
52319;BME280;38258;51.148;14.068;2023-04-28T13:48:25;98114.56;;;11.93;93.70
52319;BME280;38258;51.148;14.068;2023-04-28T13:50:52;98112.16;;;12.11;95.77
52319;BME280;38258;51.148;14.068;2023-04-28T13:53:19;98107.41;;;12.21;96.68
52319;BME280;38258;51.148;14.068;2023-04-28T13:55:48;98102.50;;;12.11;95.86
52319;BME280;38258;51.148;14.068;2023-04-28T13:58:16;98101.72;;;12.09;92.08
52319;BME280;38258;51.148;14.068;2023-04-28T14:00:43;98101.72;;;12.09;90.10